sensor_id;sensor_type;location;lat;lon;timestamp;P1;durP1;ratioP1;P2;durP2;ratioP2
6288;SDS011;3177;49.880;8.836;2022-10-16T00:01:33;1.87;;;1.77;;
6288;SDS011;3177;49.880;8.836;2022-10-16T00:04:00;2.00;;;1.90;;
6288;SDS011;3177;49.880;8.836;2022-10-16T00:06:28;2.00;;;1.90;;
6288;SDS011;3177;49.880;8.836;2022-10-16T00:08:55;2.00;;;1.90;;
6288;SDS011;3177;49.880;8.836;2022-10-16T00:11:23;1.67;;;1.40;;
6288;SDS011;3177;49.880;8.836;2022-10-16T00:13:54;1.73;;;1.60;;
6288;SDS011;3177;49.880;8.836;2022-10-16T00:16:21;1.40;;;1.40;;
6288;SDS011;3177;49.880;8.836;2022-10-16T00:18:49;2.33;;;1.60;;
6288;SDS011;3177;49.880;8.836;2022-10-16T00:21:16;3.23;;;1.67;;
6288;SDS011;3177;49.880;8.836;2022-10-16T00:23:44;1.57;;;1.47;;
6288;SDS011;3177;49.880;8.836;2022-10-16T00:26:12;1.90;;;1.80;;
6288;SDS011;3177;49.880;8.836;2022-10-16T00:28:39;1.87;;;1.63;;
6288;SDS011;3177;49.880;8.836;2022-10-16T00:31:08;2.40;;;1.50;;
6288;SDS011;3177;49.880;8.836;2022-10-16T00:33:36;3.10;;;1.63;;
6288;SDS011;3177;49.880;8.836;2022-10-16T00:36:03;1.70;;;1.60;;
6288;SDS011;3177;49.880;8.836;2022-10-16T00:38:31;1.40;;;1.30;;
6288;SDS011;3177;49.880;8.836;2022-10-16T00:40:58;1.27;;;1.27;;
6288;SDS011;3177;49.880;8.836;2022-10-16T00:43:32;1.40;;;1.30;;
6288;SDS011;3177;49.880;8.836;2022-10-16T00:46:00;1.40;;;1.30;;
6288;SDS011;3177;49.880;8.836;2022-10-16T00:48:29;1.90;;;1.17;;
6288;SDS011;3177;49.880;8.836;2022-10-16T00:50:56;1.10;;;1.10;;
6288;SDS011;3177;49.880;8.836;2022-10-16T00:53:23;2.63;;;1.93;;
6288;SDS011;3177;49.880;8.836;2022-10-16T00:55:52;1.30;;;1.20;;
6288;SDS011;3177;49.880;8.836;2022-10-16T00:58:19;1.00;;;1.00;;
6288;SDS011;3177;49.880;8.836;2022-10-16T01:00:46;1.47;;;1.20;;
6288;SDS011;3177;49.880;8.836;2022-10-16T01:03:24;1.20;;;1.20;;
6288;SDS011;3177;49.880;8.836;2022-10-16T01:05:54;1.13;;;1.03;;
6288;SDS011;3177;49.880;8.836;2022-10-16T01:08:26;1.13;;;1.10;;
6288;SDS011;3177;49.880;8.836;2022-10-16T01:10:56;0.87;;;0.87;;
6288;SDS011;3177;49.880;8.836;2022-10-16T01:13:24;1.00;;;1.00;;
6288;SDS011;3177;49.880;8.836;2022-10-16T01:15:54;1.20;;;1.20;;
6288;SDS011;3177;49.880;8.836;2022-10-16T01:18:24;1.10;;;1.10;;
6288;SDS011;3177;49.880;8.836;2022-10-16T01:20:57;1.00;;;1.00;;
6288;SDS011;3177;49.880;8.836;2022-10-16T01:23:28;1.03;;;1.00;;
6288;SDS011;3177;49.880;8.836;2022-10-16T01:26:09;1.30;;;1.23;;
6288;SDS011;3177;49.880;8.836;2022-10-16T01:28:39;3.60;;;1.30;;
6288;SDS011;3177;49.880;8.836;2022-10-16T01:31:08;0.90;;;0.90;;
6288;SDS011;3177;49.880;8.836;2022-10-16T01:33:38;2.00;;;1.00;;
6288;SDS011;3177;49.880;8.836;2022-10-16T01:36:07;1.10;;;1.10;;
6288;SDS011;3177;49.880;8.836;2022-10-16T01:38:37;1.00;;;1.00;;
6288;SDS011;3177;49.880;8.836;2022-10-16T01:41:06;1.30;;;1.10;;
6288;SDS011;3177;49.880;8.836;2022-10-16T01:43:35;2.00;;;1.20;;
6288;SDS011;3177;49.880;8.836;2022-10-16T01:46:04;0.90;;;0.90;;
6288;SDS011;3177;49.880;8.836;2022-10-16T01:48:32;2.53;;;1.10;;
6288;SDS011;3177;49.880;8.836;2022-10-16T01:51:01;1.47;;;0.93;;
6288;SDS011;3177;49.880;8.836;2022-10-16T01:53:29;1.33;;;1.20;;
6288;SDS011;3177;49.880;8.836;2022-10-16T01:55:56;1.00;;;1.00;;
6288;SDS011;3177;49.880;8.836;2022-10-16T01:58:24;1.27;;;1.23;;
6288;SDS011;3177;49.880;8.836;2022-10-16T02:00:52;1.20;;;1.10;;
6288;SDS011;3177;49.880;8.836;2022-10-16T02:03:22;1.30;;;1.13;;
6288;SDS011;3177;49.880;8.836;2022-10-16T02:05:50;1.00;;;1.00;;
6288;SDS011;3177;49.880;8.836;2022-10-16T02:08:18;0.80;;;0.80;;
6288;SDS011;3177;49.880;8.836;2022-10-16T02:10:45;1.50;;;1.10;;
6288;SDS011;3177;49.880;8.836;2022-10-16T02:13:13;1.07;;;0.97;;
6288;SDS011;3177;49.880;8.836;2022-10-16T02:15:41;1.43;;;1.00;;
6288;SDS011;3177;49.880;8.836;2022-10-16T02:18:08;1.33;;;1.30;;
6288;SDS011;3177;49.880;8.836;2022-10-16T02:20:39;2.53;;;1.20;;
6288;SDS011;3177;49.880;8.836;2022-10-16T02:23:07;1.53;;;1.43;;
6288;SDS011;3177;49.880;8.836;2022-10-16T02:25:37;1.80;;;1.70;;
6288;SDS011;3177;49.880;8.836;2022-10-16T02:28:06;1.67;;;1.50;;
6288;SDS011;3177;49.880;8.836;2022-10-16T02:30:39;2.70;;;1.67;;
6288;SDS011;3177;49.880;8.836;2022-10-16T02:33:08;2.83;;;1.87;;
6288;SDS011;3177;49.880;8.836;2022-10-16T02:35:37;1.63;;;1.53;;
6288;SDS011;3177;49.880;8.836;2022-10-16T02:38:05;1.83;;;1.73;;
6288;SDS011;3177;49.880;8.836;2022-10-16T02:40:32;2.00;;;1.90;;
6288;SDS011;3177;49.880;8.836;2022-10-16T02:43:00;3.27;;;2.03;;
6288;SDS011;3177;49.880;8.836;2022-10-16T02:45:27;2.70;;;1.90;;
6288;SDS011;3177;49.880;8.836;2022-10-16T02:47:54;2.50;;;2.30;;
6288;SDS011;3177;49.880;8.836;2022-10-16T02:50:21;2.30;;;2.10;;
6288;SDS011;3177;49.880;8.836;2022-10-16T02:52:51;3.87;;;2.40;;
6288;SDS011;3177;49.880;8.836;2022-10-16T02:55:18;2.70;;;2.53;;
6288;SDS011;3177;49.880;8.836;2022-10-16T02:57:45;2.70;;;2.50;;
6288;SDS011;3177;49.880;8.836;2022-10-16T03:00:14;2.77;;;2.57;;
6288;SDS011;3177;49.880;8.836;2022-10-16T03:02:42;3.40;;;3.10;;
6288;SDS011;3177;49.880;8.836;2022-10-16T03:05:09;3.23;;;2.93;;
6288;SDS011;3177;49.880;8.836;2022-10-16T03:07:36;4.07;;;3.77;;
6288;SDS011;3177;49.880;8.836;2022-10-16T03:10:05;3.87;;;3.57;;
6288;SDS011;3177;49.880;8.836;2022-10-16T03:12:33;5.90;;;4.07;;
6288;SDS011;3177;49.880;8.836;2022-10-16T03:15:00;4.70;;;4.30;;
6288;SDS011;3177;49.880;8.836;2022-10-16T03:17:27;6.30;;;4.00;;
6288;SDS011;3177;49.880;8.836;2022-10-16T03:19:54;4.90;;;4.50;;
6288;SDS011;3177;49.880;8.836;2022-10-16T03:22:21;4.73;;;4.23;;
6288;SDS011;3177;49.880;8.836;2022-10-16T03:24:48;5.63;;;5.10;;
6288;SDS011;3177;49.880;8.836;2022-10-16T03:27:17;5.70;;;5.20;;
6288;SDS011;3177;49.880;8.836;2022-10-16T03:29:44;6.20;;;5.50;;
6288;SDS011;3177;49.880;8.836;2022-10-16T03:32:11;5.80;;;5.37;;
6288;SDS011;3177;49.880;8.836;2022-10-16T03:34:38;6.47;;;5.87;;
6288;SDS011;3177;49.880;8.836;2022-10-16T03:37:05;7.00;;;6.00;;
6288;SDS011;3177;49.880;8.836;2022-10-16T03:39:32;7.00;;;6.30;;
6288;SDS011;3177;49.880;8.836;2022-10-16T03:41:59;7.13;;;6.37;;
6288;SDS011;3177;49.880;8.836;2022-10-16T03:44:27;7.63;;;6.93;;
6288;SDS011;3177;49.880;8.836;2022-10-16T03:46:54;7.23;;;6.53;;
6288;SDS011;3177;49.880;8.836;2022-10-16T03:49:21;7.63;;;6.70;;
6288;SDS011;3177;49.880;8.836;2022-10-16T03:51:48;7.50;;;6.13;;
6288;SDS011;3177;49.880;8.836;2022-10-16T03:54:15;6.47;;;5.93;;
6288;SDS011;3177;49.880;8.836;2022-10-16T03:56:42;7.07;;;6.40;;
6288;SDS011;3177;49.880;8.836;2022-10-16T03:59:10;7.20;;;6.60;;
6288;SDS011;3177;49.880;8.836;2022-10-16T04:01:38;9.30;;;6.40;;
6288;SDS011;3177;49.880;8.836;2022-10-16T04:04:05;7.80;;;5.90;;
6288;SDS011;3177;49.880;8.836;2022-10-16T04:06:32;7.90;;;7.10;;
6288;SDS011;3177;49.880;8.836;2022-10-16T04:08:59;7.00;;;6.40;;
6288;SDS011;3177;49.880;8.836;2022-10-16T04:11:26;7.67;;;6.93;;
6288;SDS011;3177;49.880;8.836;2022-10-16T04:13:54;8.93;;;6.97;;
6288;SDS011;3177;49.880;8.836;2022-10-16T04:16:21;8.33;;;7.30;;
6288;SDS011;3177;49.880;8.836;2022-10-16T04:18:49;8.53;;;7.73;;
6288;SDS011;3177;49.880;8.836;2022-10-16T04:21:16;9.87;;;7.27;;
6288;SDS011;3177;49.880;8.836;2022-10-16T04:23:43;9.40;;;6.80;;
6288;SDS011;3177;49.880;8.836;2022-10-16T04:26:10;7.47;;;6.73;;
6288;SDS011;3177;49.880;8.836;2022-10-16T04:28:37;10.93;;;5.90;;
6288;SDS011;3177;49.880;8.836;2022-10-16T04:31:05;6.27;;;5.67;;
6288;SDS011;3177;49.880;8.836;2022-10-16T04:33:32;6.47;;;5.90;;
6288;SDS011;3177;49.880;8.836;2022-10-16T04:36:00;6.60;;;6.00;;
6288;SDS011;3177;49.880;8.836;2022-10-16T04:38:28;7.27;;;6.07;;
6288;SDS011;3177;49.880;8.836;2022-10-16T04:40:55;6.43;;;5.90;;
6288;SDS011;3177;49.880;8.836;2022-10-16T04:43:23;7.10;;;6.40;;
6288;SDS011;3177;49.880;8.836;2022-10-16T04:45:50;7.03;;;6.27;;
6288;SDS011;3177;49.880;8.836;2022-10-16T04:48:17;6.93;;;6.33;;
6288;SDS011;3177;49.880;8.836;2022-10-16T04:50:44;6.30;;;5.73;;
6288;SDS011;3177;49.880;8.836;2022-10-16T04:53:12;6.97;;;6.30;;
6288;SDS011;3177;49.880;8.836;2022-10-16T04:55:40;6.83;;;6.23;;
6288;SDS011;3177;49.880;8.836;2022-10-16T04:58:08;7.13;;;6.40;;
6288;SDS011;3177;49.880;8.836;2022-10-16T05:00:35;7.93;;;6.27;;
6288;SDS011;3177;49.880;8.836;2022-10-16T05:03:03;7.00;;;6.07;;
6288;SDS011;3177;49.880;8.836;2022-10-16T05:05:32;6.03;;;5.53;;
6288;SDS011;3177;49.880;8.836;2022-10-16T05:07:59;8.97;;;5.93;;
6288;SDS011;3177;49.880;8.836;2022-10-16T05:10:28;8.10;;;5.90;;
6288;SDS011;3177;49.880;8.836;2022-10-16T05:12:55;6.07;;;5.57;;
6288;SDS011;3177;49.880;8.836;2022-10-16T05:15:22;7.47;;;6.77;;
6288;SDS011;3177;49.880;8.836;2022-10-16T05:17:52;6.30;;;5.80;;
6288;SDS011;3177;49.880;8.836;2022-10-16T05:20:19;6.60;;;5.10;;
6288;SDS011;3177;49.880;8.836;2022-10-16T05:22:46;6.00;;;5.50;;
6288;SDS011;3177;49.880;8.836;2022-10-16T05:25:13;5.20;;;4.80;;
6288;SDS011;3177;49.880;8.836;2022-10-16T05:27:42;6.60;;;5.40;;
6288;SDS011;3177;49.880;8.836;2022-10-16T05:30:09;6.40;;;5.20;;
6288;SDS011;3177;49.880;8.836;2022-10-16T05:32:36;6.07;;;4.97;;
6288;SDS011;3177;49.880;8.836;2022-10-16T05:35:03;5.13;;;4.73;;
6288;SDS011;3177;49.880;8.836;2022-10-16T05:37:31;6.83;;;5.33;;
6288;SDS011;3177;49.880;8.836;2022-10-16T05:39:58;6.03;;;5.00;;
6288;SDS011;3177;49.880;8.836;2022-10-16T05:42:25;5.87;;;4.70;;
6288;SDS011;3177;49.880;8.836;2022-10-16T05:44:53;5.77;;;5.27;;
6288;SDS011;3177;49.880;8.836;2022-10-16T05:47:20;5.70;;;5.20;;
6288;SDS011;3177;49.880;8.836;2022-10-16T05:49:47;6.43;;;5.43;;
6288;SDS011;3177;49.880;8.836;2022-10-16T05:52:15;5.93;;;5.43;;
6288;SDS011;3177;49.880;8.836;2022-10-16T05:54:42;5.80;;;5.20;;
6288;SDS011;3177;49.880;8.836;2022-10-16T05:57:09;5.40;;;4.90;;
6288;SDS011;3177;49.880;8.836;2022-10-16T05:59:36;5.77;;;5.30;;
6288;SDS011;3177;49.880;8.836;2022-10-16T06:02:05;5.47;;;4.97;;
6288;SDS011;3177;49.880;8.836;2022-10-16T06:04:32;4.97;;;4.57;;
6288;SDS011;3177;49.880;8.836;2022-10-16T06:06:59;5.33;;;4.83;;
6288;SDS011;3177;49.880;8.836;2022-10-16T06:09:26;6.13;;;5.60;;
6288;SDS011;3177;49.880;8.836;2022-10-16T06:11:53;7.57;;;5.63;;
6288;SDS011;3177;49.880;8.836;2022-10-16T06:14:21;12.60;;;6.00;;
6288;SDS011;3177;49.880;8.836;2022-10-16T06:16:48;5.90;;;5.40;;
6288;SDS011;3177;49.880;8.836;2022-10-16T06:19:16;6.57;;;5.90;;
6288;SDS011;3177;49.880;8.836;2022-10-16T06:21:43;7.40;;;5.67;;
6288;SDS011;3177;49.880;8.836;2022-10-16T06:24:11;6.73;;;6.13;;
6288;SDS011;3177;49.880;8.836;2022-10-16T06:26:38;7.20;;;6.30;;
6288;SDS011;3177;49.880;8.836;2022-10-16T06:29:05;6.87;;;6.13;;
6288;SDS011;3177;49.880;8.836;2022-10-16T06:31:32;6.80;;;6.07;;
6288;SDS011;3177;49.880;8.836;2022-10-16T06:33:59;6.70;;;6.07;;
6288;SDS011;3177;49.880;8.836;2022-10-16T06:36:28;6.57;;;5.97;;
6288;SDS011;3177;49.880;8.836;2022-10-16T06:38:55;7.80;;;6.97;;
6288;SDS011;3177;49.880;8.836;2022-10-16T06:41:22;7.23;;;6.60;;
6288;SDS011;3177;49.880;8.836;2022-10-16T06:43:49;7.40;;;6.33;;
6288;SDS011;3177;49.880;8.836;2022-10-16T06:46:18;5.77;;;5.27;;
6288;SDS011;3177;49.880;8.836;2022-10-16T06:48:45;9.97;;;5.13;;
6288;SDS011;3177;49.880;8.836;2022-10-16T06:51:13;5.20;;;4.73;;
6288;SDS011;3177;49.880;8.836;2022-10-16T06:53:44;5.37;;;4.87;;
6288;SDS011;3177;49.880;8.836;2022-10-16T06:56:12;7.13;;;4.43;;
6288;SDS011;3177;49.880;8.836;2022-10-16T06:58:39;5.83;;;5.30;;
6288;SDS011;3177;49.880;8.836;2022-10-16T07:01:07;7.10;;;5.43;;
6288;SDS011;3177;49.880;8.836;2022-10-16T07:03:35;6.90;;;6.20;;
6288;SDS011;3177;49.880;8.836;2022-10-16T07:06:03;6.17;;;5.27;;
6288;SDS011;3177;49.880;8.836;2022-10-16T07:08:31;7.07;;;5.50;;
6288;SDS011;3177;49.880;8.836;2022-10-16T07:11:00;7.30;;;6.10;;
6288;SDS011;3177;49.880;8.836;2022-10-16T07:13:27;9.03;;;6.87;;
6288;SDS011;3177;49.880;8.836;2022-10-16T07:15:54;5.83;;;5.23;;
6288;SDS011;3177;49.880;8.836;2022-10-16T07:18:22;5.63;;;4.53;;
6288;SDS011;3177;49.880;8.836;2022-10-16T07:20:52;4.10;;;3.80;;
6288;SDS011;3177;49.880;8.836;2022-10-16T07:23:19;3.83;;;3.53;;
6288;SDS011;3177;49.880;8.836;2022-10-16T07:25:52;4.20;;;3.90;;
6288;SDS011;3177;49.880;8.836;2022-10-16T07:28:21;4.30;;;3.97;;
6288;SDS011;3177;49.880;8.836;2022-10-16T07:30:49;5.80;;;5.17;;
6288;SDS011;3177;49.880;8.836;2022-10-16T07:33:16;5.97;;;5.37;;
6288;SDS011;3177;49.880;8.836;2022-10-16T07:35:48;4.93;;;4.13;;
6288;SDS011;3177;49.880;8.836;2022-10-16T07:38:15;9.00;;;4.10;;
6288;SDS011;3177;49.880;8.836;2022-10-16T07:40:42;5.67;;;4.10;;
6288;SDS011;3177;49.880;8.836;2022-10-16T07:43:09;4.20;;;3.80;;
6288;SDS011;3177;49.880;8.836;2022-10-16T07:45:37;4.27;;;3.73;;
6288;SDS011;3177;49.880;8.836;2022-10-16T07:48:05;5.93;;;3.77;;
6288;SDS011;3177;49.880;8.836;2022-10-16T07:50:32;4.17;;;3.77;;
6288;SDS011;3177;49.880;8.836;2022-10-16T07:52:59;4.07;;;3.57;;
6288;SDS011;3177;49.880;8.836;2022-10-16T07:55:26;4.43;;;4.03;;
6288;SDS011;3177;49.880;8.836;2022-10-16T07:57:54;6.60;;;4.47;;
6288;SDS011;3177;49.880;8.836;2022-10-16T08:00:21;5.80;;;4.03;;
6288;SDS011;3177;49.880;8.836;2022-10-16T08:02:49;4.73;;;3.60;;
6288;SDS011;3177;49.880;8.836;2022-10-16T08:05:16;7.70;;;3.60;;
6288;SDS011;3177;49.880;8.836;2022-10-16T08:07:47;3.63;;;3.20;;
6288;SDS011;3177;49.880;8.836;2022-10-16T08:10:15;5.60;;;3.13;;
6288;SDS011;3177;49.880;8.836;2022-10-16T08:12:43;3.83;;;3.37;;
6288;SDS011;3177;49.880;8.836;2022-10-16T08:15:10;2.93;;;2.63;;
6288;SDS011;3177;49.880;8.836;2022-10-16T08:17:37;3.27;;;2.97;;
6288;SDS011;3177;49.880;8.836;2022-10-16T08:20:06;3.77;;;3.00;;
6288;SDS011;3177;49.880;8.836;2022-10-16T08:22:33;5.47;;;3.17;;
6288;SDS011;3177;49.880;8.836;2022-10-16T08:25:01;4.23;;;2.90;;
6288;SDS011;3177;49.880;8.836;2022-10-16T08:27:30;3.53;;;2.63;;
6288;SDS011;3177;49.880;8.836;2022-10-16T08:29:57;2.87;;;2.67;;
6288;SDS011;3177;49.880;8.836;2022-10-16T08:32:24;2.90;;;2.70;;
6288;SDS011;3177;49.880;8.836;2022-10-16T08:34:51;4.97;;;2.70;;
6288;SDS011;3177;49.880;8.836;2022-10-16T08:37:20;3.10;;;2.83;;
6288;SDS011;3177;49.880;8.836;2022-10-16T08:39:47;3.40;;;3.07;;
6288;SDS011;3177;49.880;8.836;2022-10-16T08:42:23;4.80;;;3.30;;
6288;SDS011;3177;49.880;8.836;2022-10-16T08:45:02;4.17;;;3.10;;
6288;SDS011;3177;49.880;8.836;2022-10-16T08:47:35;3.87;;;3.17;;
6288;SDS011;3177;49.880;8.836;2022-10-16T08:50:08;4.23;;;3.40;;
6288;SDS011;3177;49.880;8.836;2022-10-16T08:52:38;8.70;;;4.10;;
6288;SDS011;3177;49.880;8.836;2022-10-16T08:55:08;6.90;;;4.07;;
6288;SDS011;3177;49.880;8.836;2022-10-16T08:57:41;3.80;;;3.40;;
6288;SDS011;3177;49.880;8.836;2022-10-16T09:00:12;5.07;;;3.30;;
6288;SDS011;3177;49.880;8.836;2022-10-16T09:02:40;3.37;;;3.00;;
6288;SDS011;3177;49.880;8.836;2022-10-16T09:05:18;5.63;;;3.83;;
6288;SDS011;3177;49.880;8.836;2022-10-16T09:07:52;6.37;;;3.43;;
6288;SDS011;3177;49.880;8.836;2022-10-16T09:10:24;3.80;;;3.00;;
6288;SDS011;3177;49.880;8.836;2022-10-16T09:12:53;2.80;;;2.60;;
6288;SDS011;3177;49.880;8.836;2022-10-16T09:15:24;4.97;;;2.50;;
6288;SDS011;3177;49.880;8.836;2022-10-16T09:17:57;3.80;;;2.40;;
6288;SDS011;3177;49.880;8.836;2022-10-16T09:20:28;2.70;;;2.40;;
6288;SDS011;3177;49.880;8.836;2022-10-16T09:23:07;3.90;;;2.60;;
6288;SDS011;3177;49.880;8.836;2022-10-16T09:25:35;2.43;;;2.00;;
6288;SDS011;3177;49.880;8.836;2022-10-16T09:28:02;3.90;;;2.60;;
6288;SDS011;3177;49.880;8.836;2022-10-16T09:30:29;5.60;;;3.10;;
6288;SDS011;3177;49.880;8.836;2022-10-16T09:32:57;2.90;;;2.60;;
6288;SDS011;3177;49.880;8.836;2022-10-16T09:35:27;3.63;;;2.63;;
6288;SDS011;3177;49.880;8.836;2022-10-16T09:37:59;3.13;;;2.83;;
6288;SDS011;3177;49.880;8.836;2022-10-16T09:40:26;6.30;;;3.53;;
6288;SDS011;3177;49.880;8.836;2022-10-16T09:42:56;9.20;;;4.87;;
6288;SDS011;3177;49.880;8.836;2022-10-16T09:45:24;3.83;;;3.13;;
6288;SDS011;3177;49.880;8.836;2022-10-16T09:47:51;5.50;;;3.20;;
6288;SDS011;3177;49.880;8.836;2022-10-16T09:50:22;3.03;;;2.70;;
6288;SDS011;3177;49.880;8.836;2022-10-16T09:52:51;4.97;;;2.70;;
6288;SDS011;3177;49.880;8.836;2022-10-16T09:55:20;2.80;;;2.57;;
6288;SDS011;3177;49.880;8.836;2022-10-16T09:57:50;4.97;;;3.00;;
6288;SDS011;3177;49.880;8.836;2022-10-16T10:00:17;4.57;;;4.17;;
6288;SDS011;3177;49.880;8.836;2022-10-16T10:02:45;3.77;;;3.10;;
6288;SDS011;3177;49.880;8.836;2022-10-16T10:05:19;2.40;;;2.20;;
6288;SDS011;3177;49.880;8.836;2022-10-16T10:07:52;4.67;;;3.30;;
6288;SDS011;3177;49.880;8.836;2022-10-16T10:10:22;5.17;;;2.10;;
6288;SDS011;3177;49.880;8.836;2022-10-16T10:12:49;2.77;;;2.13;;
6288;SDS011;3177;49.880;8.836;2022-10-16T10:15:17;3.97;;;2.43;;
6288;SDS011;3177;49.880;8.836;2022-10-16T10:17:48;2.67;;;2.47;;
6288;SDS011;3177;49.880;8.836;2022-10-16T10:20:21;4.57;;;2.50;;
6288;SDS011;3177;49.880;8.836;2022-10-16T10:22:50;4.30;;;2.60;;
6288;SDS011;3177;49.880;8.836;2022-10-16T10:25:19;1.90;;;1.80;;
6288;SDS011;3177;49.880;8.836;2022-10-16T10:27:54;2.55;;;2.35;;
6288;SDS011;3177;49.880;8.836;2022-10-16T10:30:24;2.70;;;1.63;;
6288;SDS011;3177;49.880;8.836;2022-10-16T10:32:55;2.85;;;1.45;;
6288;SDS011;3177;49.880;8.836;2022-10-16T10:35:27;2.65;;;1.85;;
6288;SDS011;3177;49.880;8.836;2022-10-16T10:38:04;2.13;;;1.85;;
6288;SDS011;3177;49.880;8.836;2022-10-16T10:40:38;1.90;;;1.80;;
6288;SDS011;3177;49.880;8.836;2022-10-16T10:43:09;1.70;;;1.60;;
6288;SDS011;3177;49.880;8.836;2022-10-16T10:45:41;1.67;;;1.52;;
6288;SDS011;3177;49.880;8.836;2022-10-16T10:48:13;1.73;;;1.63;;
6288;SDS011;3177;49.880;8.836;2022-10-16T10:50:45;2.15;;;1.60;;
6288;SDS011;3177;49.880;8.836;2022-10-16T10:53:18;1.92;;;1.55;;
6288;SDS011;3177;49.880;8.836;2022-10-16T10:55:51;2.88;;;1.60;;
6288;SDS011;3177;49.880;8.836;2022-10-16T10:58:28;2.42;;;1.25;;
6288;SDS011;3177;49.880;8.836;2022-10-16T11:01:01;1.65;;;1.55;;
6288;SDS011;3177;49.880;8.836;2022-10-16T11:03:32;2.13;;;1.42;;
6288;SDS011;3177;49.880;8.836;2022-10-16T11:06:03;2.97;;;1.60;;
6288;SDS011;3177;49.880;8.836;2022-10-16T11:08:32;1.63;;;1.52;;
6288;SDS011;3177;49.880;8.836;2022-10-16T11:11:01;1.40;;;1.38;;
6288;SDS011;3177;49.880;8.836;2022-10-16T11:13:32;1.85;;;1.58;;
6288;SDS011;3177;49.880;8.836;2022-10-16T11:16:02;4.85;;;1.85;;
6288;SDS011;3177;49.880;8.836;2022-10-16T11:18:32;1.20;;;1.20;;
6288;SDS011;3177;49.880;8.836;2022-10-16T11:21:05;1.60;;;1.50;;
6288;SDS011;3177;49.880;8.836;2022-10-16T11:23:35;5.07;;;1.98;;
6288;SDS011;3177;49.880;8.836;2022-10-16T11:26:06;4.03;;;1.83;;
6288;SDS011;3177;49.880;8.836;2022-10-16T11:28:41;1.55;;;1.40;;
6288;SDS011;3177;49.880;8.836;2022-10-16T11:31:10;1.98;;;1.52;;
6288;SDS011;3177;49.880;8.836;2022-10-16T11:33:41;2.05;;;1.35;;
6288;SDS011;3177;49.880;8.836;2022-10-16T11:36:14;2.72;;;1.50;;
6288;SDS011;3177;49.880;8.836;2022-10-16T11:38:51;2.45;;;1.63;;
6288;SDS011;3177;49.880;8.836;2022-10-16T11:41:29;2.58;;;1.65;;
6288;SDS011;3177;49.880;8.836;2022-10-16T11:44:09;2.50;;;2.30;;
6288;SDS011;3177;49.880;8.836;2022-10-16T11:46:40;1.67;;;1.58;;
6288;SDS011;3177;49.880;8.836;2022-10-16T11:49:08;2.25;;;1.50;;
6288;SDS011;3177;49.880;8.836;2022-10-16T11:51:38;4.07;;;1.90;;
6288;SDS011;3177;49.880;8.836;2022-10-16T11:54:07;5.20;;;1.45;;
6288;SDS011;3177;49.880;8.836;2022-10-16T11:56:38;1.40;;;1.30;;
6288;SDS011;3177;49.880;8.836;2022-10-16T11:59:08;1.00;;;1.00;;
6288;SDS011;3177;49.880;8.836;2022-10-16T12:01:38;1.95;;;1.80;;
6288;SDS011;3177;49.880;8.836;2022-10-16T12:04:14;2.20;;;1.30;;
6288;SDS011;3177;49.880;8.836;2022-10-16T12:06:44;0.88;;;0.88;;
6288;SDS011;3177;49.880;8.836;2022-10-16T12:09:14;1.45;;;1.00;;
6288;SDS011;3177;49.880;8.836;2022-10-16T12:11:42;1.65;;;1.35;;
6288;SDS011;3177;49.880;8.836;2022-10-16T12:14:34;2.08;;;1.40;;
6288;SDS011;3177;49.880;8.836;2022-10-16T12:17:02;4.53;;;1.55;;
6288;SDS011;3177;49.880;8.836;2022-10-16T12:19:31;1.40;;;1.30;;
6288;SDS011;3177;49.880;8.836;2022-10-16T12:21:59;1.85;;;1.40;;
6288;SDS011;3177;49.880;8.836;2022-10-16T12:24:34;1.70;;;1.60;;
6288;SDS011;3177;49.880;8.836;2022-10-16T12:27:02;1.52;;;1.20;;
6288;SDS011;3177;49.880;8.836;2022-10-16T12:29:35;1.50;;;1.40;;
6288;SDS011;3177;49.880;8.836;2022-10-16T12:32:04;1.35;;;1.27;;
6288;SDS011;3177;49.880;8.836;2022-10-16T12:34:35;1.30;;;1.20;;
6288;SDS011;3177;49.880;8.836;2022-10-16T12:37:08;1.90;;;1.40;;
6288;SDS011;3177;49.880;8.836;2022-10-16T12:39:36;1.65;;;1.55;;
6288;SDS011;3177;49.880;8.836;2022-10-16T12:42:03;1.95;;;1.30;;
6288;SDS011;3177;49.880;8.836;2022-10-16T12:44:32;1.80;;;1.30;;
6288;SDS011;3177;49.880;8.836;2022-10-16T12:47:01;2.95;;;1.90;;
6288;SDS011;3177;49.880;8.836;2022-10-16T12:49:32;1.48;;;1.38;;
6288;SDS011;3177;49.880;8.836;2022-10-16T12:51:59;2.60;;;2.40;;
6288;SDS011;3177;49.880;8.836;2022-10-16T12:54:27;1.80;;;1.67;;
6288;SDS011;3177;49.880;8.836;2022-10-16T12:57:02;1.95;;;1.67;;
6288;SDS011;3177;49.880;8.836;2022-10-16T12:59:35;3.20;;;1.70;;
6288;SDS011;3177;49.880;8.836;2022-10-16T13:05:03;2.47;;;1.23;;
6288;SDS011;3177;49.880;8.836;2022-10-16T13:07:44;2.85;;;1.30;;
6288;SDS011;3177;49.880;8.836;2022-10-16T13:10:17;3.15;;;1.60;;
6288;SDS011;3177;49.880;8.836;2022-10-16T13:13:04;1.38;;;1.27;;
6288;SDS011;3177;49.880;8.836;2022-10-16T13:15:41;1.45;;;1.35;;
6288;SDS011;3177;49.880;8.836;2022-10-16T13:18:14;1.65;;;1.55;;
6288;SDS011;3177;49.880;8.836;2022-10-16T13:20:51;1.70;;;1.33;;
6288;SDS011;3177;49.880;8.836;2022-10-16T13:23:21;1.50;;;1.40;;
6288;SDS011;3177;49.880;8.836;2022-10-16T13:25:55;2.15;;;1.40;;
6288;SDS011;3177;49.880;8.836;2022-10-16T13:28:27;1.92;;;1.50;;
6288;SDS011;3177;49.880;8.836;2022-10-16T13:30:56;1.55;;;1.45;;
6288;SDS011;3177;49.880;8.836;2022-10-16T13:33:24;2.17;;;1.50;;
6288;SDS011;3177;49.880;8.836;2022-10-16T13:35:55;1.42;;;1.33;;
6288;SDS011;3177;49.880;8.836;2022-10-16T13:38:24;1.27;;;1.27;;
6288;SDS011;3177;49.880;8.836;2022-10-16T13:40:52;3.17;;;1.55;;
6288;SDS011;3177;49.880;8.836;2022-10-16T13:43:21;2.35;;;1.60;;
6288;SDS011;3177;49.880;8.836;2022-10-16T13:45:52;1.58;;;1.48;;
6288;SDS011;3177;49.880;8.836;2022-10-16T13:48:19;1.75;;;1.52;;
6288;SDS011;3177;49.880;8.836;2022-10-16T13:50:59;1.98;;;1.33;;
6288;SDS011;3177;49.880;8.836;2022-10-16T13:53:26;1.50;;;1.40;;
6288;SDS011;3177;49.880;8.836;2022-10-16T13:55:53;4.85;;;1.52;;
6288;SDS011;3177;49.880;8.836;2022-10-16T13:58:20;2.05;;;1.70;;
6288;SDS011;3177;49.880;8.836;2022-10-16T14:00:54;2.05;;;1.50;;
6288;SDS011;3177;49.880;8.836;2022-10-16T14:03:22;2.25;;;1.85;;
6288;SDS011;3177;49.880;8.836;2022-10-16T14:05:50;2.13;;;1.60;;
6288;SDS011;3177;49.880;8.836;2022-10-16T14:08:19;2.50;;;1.95;;
6288;SDS011;3177;49.880;8.836;2022-10-16T14:10:47;3.20;;;1.92;;
6288;SDS011;3177;49.880;8.836;2022-10-16T14:13:15;2.95;;;1.77;;
6288;SDS011;3177;49.880;8.836;2022-10-16T14:15:45;4.43;;;2.10;;
6288;SDS011;3177;49.880;8.836;2022-10-16T14:18:15;2.55;;;1.70;;
6288;SDS011;3177;49.880;8.836;2022-10-16T14:20:45;1.50;;;1.40;;
6288;SDS011;3177;49.880;8.836;2022-10-16T14:23:21;1.42;;;1.33;;
6288;SDS011;3177;49.880;8.836;2022-10-16T14:25:48;2.40;;;2.20;;
6288;SDS011;3177;49.880;8.836;2022-10-16T14:28:16;3.88;;;2.00;;
6288;SDS011;3177;49.880;8.836;2022-10-16T14:30:50;8.40;;;3.20;;
6288;SDS011;3177;49.880;8.836;2022-10-16T14:33:20;2.08;;;1.77;;
6288;SDS011;3177;49.880;8.836;2022-10-16T14:35:56;1.77;;;1.67;;
6288;SDS011;3177;49.880;8.836;2022-10-16T14:38:27;2.50;;;2.30;;
6288;SDS011;3177;49.880;8.836;2022-10-16T14:40:54;4.68;;;2.08;;
6288;SDS011;3177;49.880;8.836;2022-10-16T14:43:26;3.33;;;1.60;;
6288;SDS011;3177;49.880;8.836;2022-10-16T14:45:56;1.67;;;1.58;;
6288;SDS011;3177;49.880;8.836;2022-10-16T14:48:23;1.88;;;1.75;;
6288;SDS011;3177;49.880;8.836;2022-10-16T14:50:51;1.73;;;1.60;;
6288;SDS011;3177;49.880;8.836;2022-10-16T14:53:18;1.70;;;1.60;;
6288;SDS011;3177;49.880;8.836;2022-10-16T14:55:47;1.95;;;1.85;;
6288;SDS011;3177;49.880;8.836;2022-10-16T14:58:15;1.73;;;1.63;;
6288;SDS011;3177;49.880;8.836;2022-10-16T15:00:42;2.20;;;2.00;;
6288;SDS011;3177;49.880;8.836;2022-10-16T15:03:10;3.15;;;2.53;;
6288;SDS011;3177;49.880;8.836;2022-10-16T15:05:37;3.22;;;2.08;;
6288;SDS011;3177;49.880;8.836;2022-10-16T15:08:05;2.03;;;1.90;;
6288;SDS011;3177;49.880;8.836;2022-10-16T15:10:32;2.20;;;2.00;;
6288;SDS011;3177;49.880;8.836;2022-10-16T15:13:03;3.38;;;2.35;;
6288;SDS011;3177;49.880;8.836;2022-10-16T15:15:32;2.70;;;2.17;;
6288;SDS011;3177;49.880;8.836;2022-10-16T15:17:59;2.78;;;2.15;;
6288;SDS011;3177;49.880;8.836;2022-10-16T15:20:28;2.08;;;1.98;;
6288;SDS011;3177;49.880;8.836;2022-10-16T15:22:56;3.80;;;2.20;;
6288;SDS011;3177;49.880;8.836;2022-10-16T15:25:34;2.50;;;2.33;;
6288;SDS011;3177;49.880;8.836;2022-10-16T15:28:02;2.63;;;2.42;;
6288;SDS011;3177;49.880;8.836;2022-10-16T15:30:31;2.72;;;2.50;;